Time;durP1;ratioP1;P1;durP2;ratioP2;P2;SDS_P1;SDS_P2;PMS_P1;PMS_P2;Temp;Humidity;BMP_temperature;BMP_pressure;BME280_temperature;BME280_humidity;BME280_pressure;Samples;Min_cycle;Max_cycle;Signal;HPM_P1;HPM_P2
2021/08/25 00:00:55;;;;;;;1.38;0.50;;;;;;;;;;4987845;28;20491;-90
2021/08/25 00:03:24;;;;;;;1.08;0.60;;;;;;;;;;4988008;28;20480;-89
2021/08/25 00:05:50;;;;;;;2.28;0.70;;;;;;;;;;4989461;28;20512;-90
2021/08/25 00:08:17;;;;;;;0.60;0.55;;;;;;;;;;4992913;28;20413;-89
2021/08/25 00:10:44;;;;;;;1.20;0.60;;;;;;;;;;4992798;28;20511;-91
2021/08/25 00:13:11;;;;;;;1.20;0.60;;;;;;;;;;4996478;28;20420;-90
2021/08/25 00:15:39;;;;;;;1.27;0.80;;;;;;;;;;4997175;28;20405;-91
2021/08/25 00:18:07;;;;;;;0.63;0.50;;;;;;;;;;4993298;28;20400;-91
2021/08/25 00:20:36;;;;;;;1.00;0.50;;;;;;;;;;4989491;28;20428;-90
2021/08/25 00:23:03;;;;;;;1.13;0.60;;;;;;;;;;4993896;28;20812;-90
2021/08/25 00:25:30;;;;;;;1.55;0.60;;;;;;;;;;4992309;28;20414;-89
2021/08/25 00:27:57;;;;;;;1.98;0.70;;;;;;;;;;4988613;28;20777;-89
2021/08/25 00:30:24;;;;;;;0.95;0.68;;;;;;;;;;4989235;28;20424;-90
2021/08/25 00:32:52;;;;;;;1.80;0.65;;;;;;;;;;4998794;28;20416;-91
2021/08/25 00:35:19;;;;;;;0.87;0.70;;;;;;;;;;4995222;28;20408;-90
2021/08/25 00:37:47;;;;;;;1.60;0.70;;;;;;;;;;4989187;28;20412;-90
2021/08/25 00:40:15;;;;;;;1.80;0.70;;;;;;;;;;4994897;28;20770;-90
2021/08/25 00:42:42;;;;;;;0.70;0.70;;;;;;;;;;4989240;28;20511;-90
2021/08/25 00:45:10;;;;;;;0.90;0.57;;;;;;;;;;4988727;28;20423;-90
2021/08/25 00:47:37;;;;;;;1.43;0.57;;;;;;;;;;4988626;28;20408;-90
2021/08/25 00:50:06;;;;;;;1.00;0.50;;;;;;;;;;4987771;28;20464;-90
2021/08/25 00:52:33;;;;;;;0.68;0.50;;;;;;;;;;4986941;28;20408;-90
2021/08/25 00:55:02;;;;;;;0.60;0.60;;;;;;;;;;4989714;28;20649;-90
2021/08/25 00:57:29;;;;;;;1.43;0.57;;;;;;;;;;4988039;28;20405;-90
2021/08/25 00:59:56;;;;;;;1.13;0.63;;;;;;;;;;4996808;28;20909;-90
2021/08/25 01:02:30;;;;;;;1.42;0.60;;;;;;;;;;4999835;28;20416;-90
2021/08/25 01:04:59;;;;;;;1.02;0.63;;;;;;;;;;4994364;28;20813;-90
2021/08/25 01:07:29;;;;;;;1.70;0.65;;;;;;;;;;5000050;28;21203;-90
2021/08/25 01:09:56;;;;;;;0.65;0.60;;;;;;;;;;5012670;28;20425;-90
2021/08/25 01:12:25;;;;;;;2.30;0.70;;;;;;;;;;4997121;28;20393;-90
2021/08/25 01:14:52;;;;;;;1.38;0.68;;;;;;;;;;4987930;28;20761;-90
2021/08/25 01:17:21;;;;;;;0.98;0.52;;;;;;;;;;4988005;28;20877;-90
2021/08/25 01:19:56;;;;;;;1.42;0.60;;;;;;;;;;4994079;28;20446;-90
2021/08/25 01:22:25;;;;;;;0.88;0.60;;;;;;;;;;4994852;28;20420;-90
2021/08/25 01:24:54;;;;;;;0.65;0.60;;;;;;;;;;4995025;28;20568;-89
2021/08/25 01:27:25;;;;;;;0.73;0.73;;;;;;;;;;4989572;28;20420;-90
2021/08/25 01:29:54;;;;;;;0.70;0.60;;;;;;;;;;4991917;28;20412;-91
2021/08/25 01:32:21;;;;;;;1.20;0.80;;;;;;;;;;4989604;28;20766;-91
2021/08/25 01:34:49;;;;;;;0.70;0.50;;;;;;;;;;4997336;28;20672;-91
2021/08/25 01:37:16;;;;;;;2.85;0.80;;;;;;;;;;4994212;28;20412;-90
2021/08/25 01:39:43;;;;;;;1.20;0.70;;;;;;;;;;4996204;28;20428;-90
2021/08/25 01:42:10;;;;;;;0.77;0.60;;;;;;;;;;4996333;28;20432;-91
2021/08/25 01:44:38;;;;;;;1.40;0.60;;;;;;;;;;4996302;28;20752;-91
2021/08/25 01:47:07;;;;;;;1.10;0.50;;;;;;;;;;4995848;28;20407;-90
2021/08/25 01:49:33;;;;;;;1.67;0.65;;;;;;;;;;4987926;28;20415;-91
2021/08/25 01:52:00;;;;;;;0.50;0.50;;;;;;;;;;4990998;28;20408;-90
2021/08/25 01:54:27;;;;;;;1.63;0.60;;;;;;;;;;4994824;28;20407;-90
2021/08/25 01:56:54;;;;;;;1.30;0.65;;;;;;;;;;4996834;28;20420;-90
2021/08/25 01:59:21;;;;;;;1.05;0.68;;;;;;;;;;4996861;28;20759;-90
2021/08/25 02:01:48;;;;;;;0.43;0.43;;;;;;;;;;4993709;28;20418;-91
2021/08/25 02:04:16;;;;;;;0.70;0.60;;;;;;;;;;4996969;28;20419;-91
2021/08/25 02:06:43;;;;;;;1.23;0.57;;;;;;;;;;4998087;28;20411;-90
2021/08/25 02:09:10;;;;;;;0.77;0.60;;;;;;;;;;4996424;28;20404;-90
2021/08/25 02:11:37;;;;;;;0.65;0.60;;;;;;;;;;4999192;28;20413;-91
2021/08/25 02:14:04;;;;;;;2.50;0.70;;;;;;;;;;4999069;28;20407;-91
2021/08/25 02:16:31;;;;;;;1.38;0.50;;;;;;;;;;4991540;28;20405;-90
2021/08/25 02:18:58;;;;;;;0.60;0.57;;;;;;;;;;4998370;28;20411;-90
2021/08/25 02:21:26;;;;;;;1.23;0.67;;;;;;;;;;4999472;28;20518;-91
2021/08/25 02:23:54;;;;;;;0.50;0.50;;;;;;;;;;4999680;28;20419;-91
2021/08/25 02:26:21;;;;;;;1.10;0.50;;;;;;;;;;4997228;28;20957;-92
2021/08/25 02:28:50;;;;;;;1.30;0.70;;;;;;;;;;4997348;28;20412;-91
2021/08/25 02:31:17;;;;;;;1.45;0.60;;;;;;;;;;4997359;28;20423;-91
2021/08/25 02:33:44;;;;;;;0.60;0.60;;;;;;;;;;4995883;28;20422;-90
2021/08/25 02:36:12;;;;;;;0.90;0.80;;;;;;;;;;4995910;28;20407;-90
2021/08/25 02:38:41;;;;;;;1.08;0.63;;;;;;;;;;4998556;28;20415;-90
2021/08/25 02:41:13;;;;;;;0.68;0.65;;;;;;;;;;4995739;28;20400;-91
2021/08/25 02:43:41;;;;;;;1.40;0.70;;;;;;;;;;4998892;28;20415;-89
2021/08/25 02:46:08;;;;;;;1.13;0.68;;;;;;;;;;4995428;28;20467;-90
2021/08/25 02:48:35;;;;;;;1.48;0.70;;;;;;;;;;4998832;28;20430;-90
2021/08/25 02:51:02;;;;;;;0.70;0.70;;;;;;;;;;4995180;28;20434;-91
2021/08/25 02:53:29;;;;;;;0.88;0.60;;;;;;;;;;4995640;28;20420;-91
2021/08/25 02:55:58;;;;;;;1.60;0.70;;;;;;;;;;4997781;28;20410;-91
2021/08/25 02:58:25;;;;;;;0.75;0.70;;;;;;;;;;4995651;28;20422;-91
2021/08/25 03:00:52;;;;;;;0.95;0.60;;;;;;;;;;4997897;28;20409;-90
2021/08/25 03:03:18;;;;;;;1.55;0.65;;;;;;;;;;4996852;28;20410;-91
2021/08/25 03:05:45;;;;;;;1.17;0.65;;;;;;;;;;4996649;28;20750;-90
2021/08/25 03:08:12;;;;;;;1.30;0.68;;;;;;;;;;4997389;28;20414;-89
2021/08/25 03:10:39;;;;;;;0.70;0.60;;;;;;;;;;4995553;28;20909;-90
2021/08/25 03:13:08;;;;;;;0.60;0.50;;;;;;;;;;4994036;28;20400;-90
2021/08/25 03:15:36;;;;;;;0.50;0.50;;;;;;;;;;4998618;28;20818;-91
2021/08/25 03:18:03;;;;;;;0.80;0.60;;;;;;;;;;4990999;28;20413;-90
2021/08/25 03:20:30;;;;;;;0.82;0.55;;;;;;;;;;4998461;28;20895;-90
2021/08/25 03:22:57;;;;;;;1.50;0.60;;;;;;;;;;4996122;28;20408;-90
2021/08/25 03:25:24;;;;;;;2.10;0.80;;;;;;;;;;4997935;28;20404;-91
2021/08/25 03:27:51;;;;;;;1.35;0.60;;;;;;;;;;4996297;28;20775;-90
2021/08/25 03:30:19;;;;;;;0.98;0.70;;;;;;;;;;4999369;28;20408;-91
2021/08/25 03:32:46;;;;;;;1.30;0.60;;;;;;;;;;5000978;28;20414;-91
2021/08/25 03:35:13;;;;;;;0.85;0.50;;;;;;;;;;4998325;28;20419;-90
2021/08/25 03:37:40;;;;;;;1.02;0.70;;;;;;;;;;4998477;28;20418;-91
2021/08/25 03:40:08;;;;;;;2.03;0.73;;;;;;;;;;4998588;28;20411;-91
2021/08/25 03:42:35;;;;;;;0.85;0.77;;;;;;;;;;5002612;28;20419;-90
2021/08/25 03:45:02;;;;;;;1.63;0.70;;;;;;;;;;5001786;28;20415;-90
2021/08/25 03:47:31;;;;;;;0.98;0.55;;;;;;;;;;5003059;28;20416;-90
2021/08/25 03:49:58;;;;;;;0.90;0.80;;;;;;;;;;5001343;28;20919;-90
2021/08/25 03:52:25;;;;;;;1.98;0.60;;;;;;;;;;4998941;28;20415;-91
2021/08/25 03:54:52;;;;;;;1.42;0.55;;;;;;;;;;5000577;28;20893;-90
2021/08/25 03:57:19;;;;;;;1.15;0.73;;;;;;;;;;4999410;28;20423;-90
2021/08/25 03:59:46;;;;;;;1.35;0.90;;;;;;;;;;5002148;28;20414;-91
2021/08/25 04:02:13;;;;;;;1.50;0.63;;;;;;;;;;4998483;28;20409;-91
2021/08/25 04:04:41;;;;;;;1.50;0.80;;;;;;;;;;4997680;28;20443;-90
2021/08/25 04:07:08;;;;;;;0.70;0.70;;;;;;;;;;4994640;28;20753;-90
2021/08/25 04:09:35;;;;;;;1.20;0.65;;;;;;;;;;4992638;28;20409;-91
2021/08/25 04:12:02;;;;;;;1.40;0.80;;;;;;;;;;4990549;28;20428;-90
2021/08/25 04:14:29;;;;;;;0.73;0.60;;;;;;;;;;4992577;28;20411;-91
2021/08/25 04:16:56;;;;;;;2.55;0.60;;;;;;;;;;4993060;28;20508;-89
2021/08/25 04:19:23;;;;;;;1.20;0.60;;;;;;;;;;4991224;28;20412;-91
2021/08/25 04:21:51;;;;;;;2.05;0.90;;;;;;;;;;4993756;28;20427;-91
2021/08/25 04:24:18;;;;;;;1.30;0.60;;;;;;;;;;4988808;28;20924;-91
2021/08/25 04:26:45;;;;;;;1.30;0.68;;;;;;;;;;4989058;28;20415;-90
2021/08/25 04:29:12;;;;;;;2.00;0.70;;;;;;;;;;4988815;28;20838;-90
2021/08/25 04:31:39;;;;;;;1.15;0.60;;;;;;;;;;4989997;28;20428;-90
2021/08/25 04:34:06;;;;;;;2.30;0.80;;;;;;;;;;4992066;28;20416;-91
2021/08/25 04:36:33;;;;;;;1.52;0.90;;;;;;;;;;4988241;28;20513;-90
2021/08/25 04:39:01;;;;;;;1.33;0.90;;;;;;;;;;4988509;28;20405;-90
2021/08/25 04:41:28;;;;;;;1.42;1.00;;;;;;;;;;4988788;28;20824;-91
2021/08/25 04:43:55;;;;;;;0.80;0.70;;;;;;;;;;4992394;28;20417;-90
2021/08/25 04:46:22;;;;;;;2.10;0.80;;;;;;;;;;4988405;28;20590;-90
2021/08/25 04:48:49;;;;;;;2.83;1.00;;;;;;;;;;4989068;28;20405;-90
2021/08/25 04:51:16;;;;;;;1.80;0.90;;;;;;;;;;4992573;28;20417;-90
2021/08/25 04:53:43;;;;;;;2.45;1.00;;;;;;;;;;4993083;28;20865;-90
2021/08/25 04:56:11;;;;;;;1.00;0.80;;;;;;;;;;4990818;28;20423;-90
2021/08/25 04:58:38;;;;;;;1.50;0.70;;;;;;;;;;4991660;28;20424;-90
2021/08/25 05:01:05;;;;;;;1.10;0.80;;;;;;;;;;4992508;28;20401;-91
2021/08/25 05:03:32;;;;;;;1.65;0.90;;;;;;;;;;4988250;28;20438;-91
2021/08/25 05:05:59;;;;;;;2.00;0.90;;;;;;;;;;4992530;28;20418;-90
2021/08/25 05:08:27;;;;;;;1.45;1.00;;;;;;;;;;4992452;28;20404;-90
2021/08/25 05:10:54;;;;;;;2.17;1.10;;;;;;;;;;4988253;28;20421;-90
2021/08/25 05:13:22;;;;;;;1.73;0.93;;;;;;;;;;4987982;28;20424;-90
2021/08/25 05:15:49;;;;;;;2.10;0.70;;;;;;;;;;4989949;28;20417;-91
2021/08/25 05:18:16;;;;;;;2.25;1.00;;;;;;;;;;4988876;28;20421;-91
2021/08/25 05:20:43;;;;;;;2.70;0.90;;;;;;;;;;4987628;28;20406;-91
2021/08/25 05:23:10;;;;;;;2.10;0.88;;;;;;;;;;4989118;28;20424;-90
2021/08/25 05:25:37;;;;;;;1.77;1.00;;;;;;;;;;4992455;28;20421;-90
2021/08/25 05:28:04;;;;;;;2.23;1.10;;;;;;;;;;4994435;28;20425;-90
2021/08/25 05:30:33;;;;;;;2.75;1.00;;;;;;;;;;4986815;28;20416;-90
2021/08/25 05:32:59;;;;;;;2.00;1.10;;;;;;;;;;4987442;28;20413;-91
2021/08/25 05:35:26;;;;;;;1.90;1.17;;;;;;;;;;4987604;28;20417;-90
2021/08/25 05:37:53;;;;;;;1.52;1.10;;;;;;;;;;4987605;28;20428;-89
2021/08/25 05:40:20;;;;;;;1.73;1.00;;;;;;;;;;4987266;28;20786;-90
2021/08/25 05:42:47;;;;;;;3.08;1.20;;;;;;;;;;4987443;28;20416;-89
2021/08/25 05:45:14;;;;;;;1.70;1.13;;;;;;;;;;4987458;28;20447;-89
2021/08/25 05:47:43;;;;;;;2.17;1.20;;;;;;;;;;4987387;28;20494;-90
2021/08/25 05:50:10;;;;;;;3.03;1.30;;;;;;;;;;4988297;28;20409;-90
2021/08/25 05:52:37;;;;;;;3.63;1.30;;;;;;;;;;4991277;28;20433;-90
2021/08/25 05:55:06;;;;;;;3.88;1.55;;;;;;;;;;4991754;28;20421;-90
2021/08/25 05:57:33;;;;;;;1.83;1.50;;;;;;;;;;4986276;28;20420;-90
2021/08/25 05:59:59;;;;;;;4.10;1.73;;;;;;;;;;4986800;28;20417;-90
2021/08/25 06:02:26;;;;;;;3.60;1.70;;;;;;;;;;4987197;28;20412;-90
2021/08/25 06:04:55;;;;;;;2.60;1.63;;;;;;;;;;4986596;28;20407;-90
2021/08/25 06:07:21;;;;;;;3.33;1.50;;;;;;;;;;4987081;28;20409;-90
2021/08/25 06:09:48;;;;;;;2.23;1.40;;;;;;;;;;4991812;28;20420;-89
2021/08/25 06:12:15;;;;;;;2.07;1.33;;;;;;;;;;4993549;28;20871;-89
2021/08/25 06:14:42;;;;;;;2.77;1.47;;;;;;;;;;5007193;28;20424;-89
2021/08/25 06:17:09;;;;;;;2.83;1.30;;;;;;;;;;5015859;28;20553;-88
2021/08/25 06:19:36;;;;;;;3.40;1.40;;;;;;;;;;5006306;28;20461;-91
2021/08/25 06:22:04;;;;;;;2.77;1.43;;;;;;;;;;4986200;28;20507;-91
2021/08/25 06:24:31;;;;;;;2.10;1.38;;;;;;;;;;4991674;28;20419;-92
2021/08/25 06:26:58;;;;;;;2.97;1.50;;;;;;;;;;4992150;28;20422;-90
2021/08/25 06:29:25;;;;;;;3.97;1.58;;;;;;;;;;4992554;28;20476;-88
2021/08/25 06:31:52;;;;;;;3.22;1.55;;;;;;;;;;4991979;28;20424;-92
2021/08/25 06:34:18;;;;;;;2.05;1.55;;;;;;;;;;4991960;28;20475;-91
2021/08/25 06:36:46;;;;;;;3.40;1.65;;;;;;;;;;4992522;28;20420;-91
2021/08/25 06:39:14;;;;;;;2.28;1.30;;;;;;;;;;4986969;28;20426;-91
2021/08/25 06:41:41;;;;;;;2.85;1.60;;;;;;;;;;4990363;28;20420;-90
2021/08/25 06:44:08;;;;;;;4.00;1.30;;;;;;;;;;4991003;28;20413;-91
2021/08/25 06:46:35;;;;;;;1.95;1.20;;;;;;;;;;4986671;28;20404;-90
2021/08/25 06:49:02;;;;;;;2.95;1.10;;;;;;;;;;4990283;28;20407;-90
2021/08/25 06:51:29;;;;;;;4.78;1.30;;;;;;;;;;4993827;28;20910;-90
2021/08/25 06:53:56;;;;;;;2.78;1.08;;;;;;;;;;4987135;28;20459;-91
2021/08/25 06:56:24;;;;;;;3.10;1.20;;;;;;;;;;4990979;28;20416;-91
2021/08/25 06:58:51;;;;;;;3.47;1.40;;;;;;;;;;4986105;28;20421;-91
2021/08/25 07:01:18;;;;;;;4.07;1.10;;;;;;;;;;4986441;28;20416;-91
2021/08/25 07:03:45;;;;;;;5.57;1.55;;;;;;;;;;4988978;28;20416;-91
2021/08/25 07:06:12;;;;;;;2.72;1.30;;;;;;;;;;4992200;28;20401;-91
2021/08/25 07:08:39;;;;;;;3.53;1.15;;;;;;;;;;4995599;28;20411;-90
2021/08/25 07:11:06;;;;;;;5.03;1.27;;;;;;;;;;4995306;28;20902;-89
2021/08/25 07:13:35;;;;;;;3.13;1.33;;;;;;;;;;4989481;28;20421;-90
2021/08/25 07:16:02;;;;;;;2.17;1.10;;;;;;;;;;4989036;28;20910;-90
2021/08/25 07:18:28;;;;;;;2.55;1.10;;;;;;;;;;4995234;28;20406;-90
2021/08/25 07:20:55;;;;;;;2.72;1.10;;;;;;;;;;4995972;28;20420;-90
2021/08/25 07:23:22;;;;;;;3.30;1.13;;;;;;;;;;4996764;28;20420;-91
2021/08/25 07:25:49;;;;;;;2.30;1.10;;;;;;;;;;4992211;28;20416;-91
2021/08/25 07:28:16;;;;;;;3.17;1.00;;;;;;;;;;4989619;28;20407;-90
2021/08/25 07:30:45;;;;;;;1.90;1.10;;;;;;;;;;4990194;28;20417;-90
2021/08/25 07:33:14;;;;;;;1.70;1.10;;;;;;;;;;4990697;28;20448;-90
2021/08/25 07:35:45;;;;;;;4.22;1.10;;;;;;;;;;4990497;28;20784;-91
2021/08/25 07:38:12;;;;;;;1.85;0.93;;;;;;;;;;4993068;28;20409;-91
2021/08/25 07:40:39;;;;;;;2.20;1.20;;;;;;;;;;4996066;28;20421;-90
2021/08/25 07:43:06;;;;;;;2.90;1.02;;;;;;;;;;4994997;28;20413;-91
2021/08/25 07:45:35;;;;;;;1.58;0.90;;;;;;;;;;4988557;28;20412;-90
2021/08/25 07:48:04;;;;;;;4.53;1.38;;;;;;;;;;4990703;28;20449;-90
2021/08/25 07:50:31;;;;;;;16.23;2.13;;;;;;;;;;4996111;28;20810;-91
2021/08/25 07:52:58;;;;;;;3.42;1.20;;;;;;;;;;4995457;28;20787;-90
2021/08/25 07:55:25;;;;;;;1.70;1.10;;;;;;;;;;4996540;28;20421;-91
2021/08/25 07:57:52;;;;;;;3.97;1.33;;;;;;;;;;4998699;28;20413;-91
2021/08/25 08:00:19;;;;;;;14.35;1.92;;;;;;;;;;4993437;28;20420;-91
2021/08/25 08:02:45;;;;;;;8.87;1.47;;;;;;;;;;4973299;28;20498;-91
2021/08/25 08:05:14;;;;;;;4.30;1.10;;;;;;;;;;4992525;28;20397;-89
2021/08/25 08:07:41;;;;;;;1.23;1.10;;;;;;;;;;4995529;28;20416;-91
2021/08/25 08:10:08;;;;;;;3.05;1.10;;;;;;;;;;4994825;28;20408;-91
2021/08/25 08:12:35;;;;;;;2.60;1.00;;;;;;;;;;4995256;28;20431;-91
2021/08/25 08:15:04;;;;;;;1.30;0.97;;;;;;;;;;4986719;28;20529;-91
2021/08/25 08:17:31;;;;;;;1.40;1.00;;;;;;;;;;4988957;28;20448;-91
2021/08/25 08:19:58;;;;;;;5.90;1.20;;;;;;;;;;4994530;28;20446;-91
2021/08/25 08:22:26;;;;;;;0.82;0.80;;;;;;;;;;4996318;28;20412;-90
2021/08/25 08:24:54;;;;;;;1.10;1.00;;;;;;;;;;4995994;28;20413;-91
2021/08/25 08:27:20;;;;;;;2.45;1.25;;;;;;;;;;4994740;28;20916;-91
2021/08/25 08:29:47;;;;;;;12.48;1.90;;;;;;;;;;4990938;28;20417;-90
2021/08/25 08:32:14;;;;;;;2.65;1.10;;;;;;;;;;4989282;28;20837;-91
2021/08/25 08:34:41;;;;;;;2.47;1.40;;;;;;;;;;4989309;28;20424;-91
2021/08/25 08:37:08;;;;;;;5.10;1.40;;;;;;;;;;4988493;28;20405;-91
2021/08/25 08:39:36;;;;;;;1.60;1.20;;;;;;;;;;4988858;28;20431;-91
2021/08/25 08:42:05;;;;;;;3.80;1.20;;;;;;;;;;4993848;28;20404;-91
2021/08/25 08:44:33;;;;;;;2.28;1.17;;;;;;;;;;4995530;28;20414;-91
2021/08/25 08:47:00;;;;;;;1.40;1.23;;;;;;;;;;4995601;28;20415;-90
2021/08/25 08:49:27;;;;;;;3.30;1.30;;;;;;;;;;4990380;28;20425;-91
2021/08/25 08:51:57;;;;;;;9.45;2.08;;;;;;;;;;4995285;28;20424;-90
2021/08/25 08:54:24;;;;;;;4.03;1.30;;;;;;;;;;4989231;28;20417;-91
2021/08/25 08:56:53;;;;;;;4.30;1.38;;;;;;;;;;4988556;28;20496;-91
2021/08/25 08:59:19;;;;;;;9.90;1.77;;;;;;;;;;4988337;28;20413;-91
2021/08/25 09:01:46;;;;;;;13.75;1.92;;;;;;;;;;4994066;28;20412;-91
2021/08/25 09:04:34;;;;;;;4.18;1.20;;;;;;;;;;4992012;28;20881;-91
2021/08/25 09:07:01;;;;;;;1.30;1.20;;;;;;;;;;4995172;28;20469;-91
2021/08/25 09:09:27;;;;;;;1.45;1.25;;;;;;;;;;4995493;28;20965;-91
2021/08/25 09:11:56;;;;;;;4.88;1.50;;;;;;;;;;4991889;28;20413;-90
2021/08/25 09:14:26;;;;;;;2.20;1.20;;;;;;;;;;4993813;28;20408;-91
2021/08/25 09:16:53;;;;;;;1.40;1.20;;;;;;;;;;4996638;28;20423;-91
2021/08/25 09:19:24;;;;;;;1.83;1.48;;;;;;;;;;4991831;28;20424;-91
2021/08/25 09:21:53;;;;;;;1.20;1.10;;;;;;;;;;4994374;28;20428;-91
2021/08/25 09:24:23;;;;;;;1.35;1.20;;;;;;;;;;4995659;28;20413;-91
2021/08/25 09:27:08;;;;;;;2.65;1.33;;;;;;;;;;4994214;28;20816;-91
2021/08/25 09:29:36;;;;;;;1.67;1.30;;;;;;;;;;4988344;28;20474;-92
2021/08/25 09:32:03;;;;;;;1.40;1.30;;;;;;;;;;4989326;28;20415;-91
2021/08/25 09:34:32;;;;;;;2.13;1.42;;;;;;;;;;4995311;28;20426;-92
2021/08/25 09:37:06;;;;;;;1.95;1.40;;;;;;;;;;4996415;28;20419;-91
2021/08/25 09:39:33;;;;;;;1.80;1.33;;;;;;;;;;4975207;28;20618;-91
2021/08/25 09:42:04;;;;;;;1.83;1.40;;;;;;;;;;4987601;28;20421;-91
2021/08/25 09:44:32;;;;;;;1.83;1.30;;;;;;;;;;4987859;28;20421;-91
2021/08/25 09:46:59;;;;;;;2.08;1.30;;;;;;;;;;4989130;28;20416;-92
2021/08/25 09:49:26;;;;;;;1.50;1.35;;;;;;;;;;4987639;28;20416;-91
2021/08/25 09:51:54;;;;;;;1.80;1.20;;;;;;;;;;4987206;28;20423;-91
2021/08/25 09:54:22;;;;;;;1.92;1.40;;;;;;;;;;4990798;28;20420;-92
2021/08/25 09:56:52;;;;;;;4.03;1.30;;;;;;;;;;4995325;28;20824;-91
2021/08/25 09:59:19;;;;;;;3.35;1.40;;;;;;;;;;4994511;28;20408;-90
2021/08/25 10:01:49;;;;;;;2.30;1.40;;;;;;;;;;4995256;28;20416;-91
2021/08/25 10:04:17;;;;;;;5.00;1.70;;;;;;;;;;4992823;28;20484;-91
2021/08/25 10:06:45;;;;;;;1.80;1.42;;;;;;;;;;4995239;28;20452;-91
2021/08/25 10:09:13;;;;;;;2.37;1.40;;;;;;;;;;4995029;28;20409;-90
2021/08/25 10:11:42;;;;;;;2.78;1.40;;;;;;;;;;4989554;28;20809;-91
2021/08/25 10:14:12;;;;;;;3.28;1.42;;;;;;;;;;4993835;28;20431;-91
2021/08/25 10:16:41;;;;;;;2.97;1.40;;;;;;;;;;4995236;28;20775;-91
2021/08/25 10:19:26;;;;;;;46.00;4.32;;;;;;;;;;4987679;28;20471;-91
2021/08/25 10:21:56;;;;;;;14.77;2.47;;;;;;;;;;4994018;28;20774;-91
2021/08/25 10:24:23;;;;;;;3.60;1.70;;;;;;;;;;4995244;28;20421;-92
2021/08/25 10:27:10;;;;;;;2.35;1.63;;;;;;;;;;4995348;28;20409;-92
2021/08/25 10:30:06;;;;;;;3.77;1.60;;;;;;;;;;4988243;28;20421;-91
2021/08/25 10:32:34;;;;;;;2.58;1.70;;;;;;;;;;4986072;28;20433;-91
2021/08/25 10:35:22;;;;;;;2.50;1.48;;;;;;;;;;4990029;28;20473;-91
2021/08/25 10:37:50;;;;;;;2.58;1.42;;;;;;;;;;4997390;28;20412;-92
2021/08/25 10:40:20;;;;;;;1.67;1.27;;;;;;;;;;4988846;28;20420;-91
2021/08/25 10:42:53;;;;;;;1.80;1.40;;;;;;;;;;4992903;28;20423;-91
2021/08/25 10:45:56;;;;;;;2.05;1.35;;;;;;;;;;4992779;28;20415;-91
2021/08/25 10:48:38;;;;;;;4.05;1.40;;;;;;;;;;4990518;28;20431;-92
2021/08/25 10:51:23;;;;;;;3.20;1.40;;;;;;;;;;4985511;28;20476;-91
2021/08/25 10:53:50;;;;;;;1.60;1.30;;;;;;;;;;4993536;28;20540;-92
2021/08/25 10:56:27;;;;;;;4.82;1.50;;;;;;;;;;4988411;28;20428;-90
2021/08/25 10:58:56;;;;;;;2.83;1.25;;;;;;;;;;4995352;28;20410;-92
2021/08/25 11:01:24;;;;;;;2.97;1.40;;;;;;;;;;4995565;28;20412;-91
2021/08/25 11:03:52;;;;;;;2.72;1.60;;;;;;;;;;4995623;28;20495;-91
2021/08/25 11:06:30;;;;;;;2.42;1.50;;;;;;;;;;4996136;28;20412;-91
2021/08/25 11:09:13;;;;;;;1.47;1.30;;;;;;;;;;4994557;28;20419;-91
2021/08/25 11:11:44;;;;;;;1.97;1.37;;;;;;;;;;4988637;28;20419;-92
2021/08/25 11:14:19;;;;;;;1.48;1.38;;;;;;;;;;4994517;28;20908;-91
2021/08/25 11:16:46;;;;;;;1.50;1.40;;;;;;;;;;4986474;28;20420;-91
2021/08/25 11:19:31;;;;;;;2.17;1.42;;;;;;;;;;4992757;28;20417;-92
2021/08/25 11:22:01;;;;;;;1.73;1.50;;;;;;;;;;4996226;28;20434;-91
2021/08/25 11:24:36;;;;;;;2.10;1.58;;;;;;;;;;4997864;28;20411;-92
2021/08/25 11:27:03;;;;;;;3.10;1.30;;;;;;;;;;4986576;28;20413;-92
2021/08/25 11:29:30;;;;;;;2.55;1.35;;;;;;;;;;4994934;28;20422;-91
2021/08/25 11:32:04;;;;;;;1.35;1.25;;;;;;;;;;5017503;28;20407;-90
2021/08/25 11:34:31;;;;;;;2.20;1.30;;;;;;;;;;5017986;28;20454;-91
2021/08/25 11:37:02;;;;;;;1.50;1.10;;;;;;;;;;5015787;28;20415;-92
2021/08/25 11:39:29;;;;;;;1.67;1.30;;;;;;;;;;4987050;28;20467;-91
2021/08/25 11:41:57;;;;;;;2.22;1.42;;;;;;;;;;4991988;28;20412;-91
2021/08/25 11:44:45;;;;;;;1.23;1.13;;;;;;;;;;4994283;28;20405;-91
2021/08/25 11:47:17;;;;;;;1.58;1.38;;;;;;;;;;4991806;28;20413;-92
2021/08/25 11:49:50;;;;;;;1.30;1.20;;;;;;;;;;4987222;28;20754;-91
2021/08/25 11:52:19;;;;;;;1.55;1.35;;;;;;;;;;4997195;28;20423;-91
2021/08/25 11:54:47;;;;;;;3.28;1.30;;;;;;;;;;4989902;28;20420;-92
2021/08/25 11:57:15;;;;;;;1.90;1.38;;;;;;;;;;4989718;28;20440;-92
2021/08/25 12:00:00;;;;;;;1.50;1.30;;;;;;;;;;4989858;28;20883;-91
2021/08/25 12:02:27;;;;;;;1.90;1.60;;;;;;;;;;4998933;28;20409;-92
2021/08/25 12:04:54;;;;;;;2.47;1.40;;;;;;;;;;4999279;28;20452;-91
2021/08/25 12:07:22;;;;;;;2.63;1.30;;;;;;;;;;4999102;28;20412;-91
2021/08/25 12:09:49;;;;;;;1.73;1.33;;;;;;;;;;4997221;28;20444;-91
2021/08/25 12:12:16;;;;;;;2.72;1.10;;;;;;;;;;4998861;28;20800;-91
2021/08/25 12:14:54;;;;;;;1.88;1.10;;;;;;;;;;4989365;28;20913;-92
2021/08/25 12:17:22;;;;;;;1.20;1.10;;;;;;;;;;4999046;28;20427;-91
2021/08/25 12:20:00;;;;;;;2.25;1.10;;;;;;;;;;4993582;28;20413;-92
2021/08/25 12:22:30;;;;;;;1.67;1.20;;;;;;;;;;4998258;28;20908;-91
2021/08/25 12:24:59;;;;;;;1.17;1.05;;;;;;;;;;4998848;28;20405;-92
2021/08/25 12:27:26;;;;;;;2.50;1.50;;;;;;;;;;4999262;28;20423;-91
2021/08/25 12:29:53;;;;;;;1.67;1.20;;;;;;;;;;4995581;28;20436;-92
2021/08/25 12:32:20;;;;;;;2.38;1.50;;;;;;;;;;4989148;28;20416;-93
2021/08/25 12:34:59;;;;;;;1.63;1.45;;;;;;;;;;4988962;28;20444;-92
2021/08/25 12:37:49;;;;;;;1.40;1.30;;;;;;;;;;4995383;28;20901;-91
2021/08/25 12:40:19;;;;;;;2.90;1.30;;;;;;;;;;4991770;28;20409;-92
2021/08/25 12:42:47;;;;;;;2.40;1.30;;;;;;;;;;4992449;28;20413;-91
2021/08/25 12:45:13;;;;;;;1.95;1.20;;;;;;;;;;4994077;28;20411;-92
2021/08/25 12:47:40;;;;;;;2.27;1.30;;;;;;;;;;4998524;28;20411;-92
2021/08/25 12:50:08;;;;;;;1.30;1.20;;;;;;;;;;4994158;28;20417;-91
2021/08/25 12:52:35;;;;;;;2.63;1.10;;;;;;;;;;4987323;28;20433;-92
2021/08/25 12:55:05;;;;;;;9.15;1.80;;;;;;;;;;4988604;28;20432;-91
2021/08/25 12:57:32;;;;;;;9.65;1.88;;;;;;;;;;4988900;28;20407;-92
2021/08/25 12:59:59;;;;;;;1.50;1.00;;;;;;;;;;4970822;28;20428;-92
2021/08/25 13:02:26;;;;;;;1.48;1.20;;;;;;;;;;4988291;28;20416;-92
2021/08/25 13:04:53;;;;;;;1.80;1.10;;;;;;;;;;4998726;28;20412;-91
2021/08/25 13:07:20;;;;;;;1.83;1.10;;;;;;;;;;4998364;28;20413;-92
2021/08/25 13:09:47;;;;;;;1.90;1.23;;;;;;;;;;4990960;28;20407;-91
2021/08/25 13:12:15;;;;;;;1.50;1.23;;;;;;;;;;4997595;28;20448;-92
2021/08/25 13:14:42;;;;;;;1.80;1.20;;;;;;;;;;4994189;28;20419;-92
2021/08/25 13:17:09;;;;;;;1.85;1.20;;;;;;;;;;4998093;28;20873;-93
2021/08/25 13:19:36;;;;;;;2.03;1.40;;;;;;;;;;4996213;28;20427;-91
2021/08/25 13:22:03;;;;;;;2.23;1.43;;;;;;;;;;4986073;28;20420;-92
2021/08/25 13:24:30;;;;;;;1.40;1.10;;;;;;;;;;4988347;28;20405;-92
2021/08/25 13:26:57;;;;;;;1.10;1.00;;;;;;;;;;4988190;28;20416;-91
2021/08/25 13:29:25;;;;;;;1.27;1.17;;;;;;;;;;4988422;28;20936;-92
2021/08/25 13:31:52;;;;;;;2.20;1.20;;;;;;;;;;4987999;28;20452;-92
2021/08/25 13:34:19;;;;;;;2.15;1.10;;;;;;;;;;4995932;28;20531;-92
2021/08/25 13:36:46;;;;;;;1.20;1.00;;;;;;;;;;4997937;28;20916;-92
2021/08/25 13:39:13;;;;;;;1.80;0.93;;;;;;;;;;4997532;28;20419;-92
2021/08/25 13:41:40;;;;;;;1.17;0.95;;;;;;;;;;4988211;28;20619;-92
2021/08/25 13:44:07;;;;;;;2.10;0.90;;;;;;;;;;4987324;28;20405;-92
2021/08/25 13:46:36;;;;;;;2.80;1.27;;;;;;;;;;4986246;28;20428;-92
2021/08/25 13:49:03;;;;;;;1.40;1.05;;;;;;;;;;4984984;28;20477;-92
2021/08/25 13:51:30;;;;;;;1.65;1.20;;;;;;;;;;4988194;28;20416;-92
2021/08/25 13:53:57;;;;;;;1.58;1.20;;;;;;;;;;4987409;28;20577;-91
2021/08/25 13:56:24;;;;;;;4.20;1.05;;;;;;;;;;4994475;28;20419;-92
2021/08/25 13:58:51;;;;;;;2.97;1.00;;;;;;;;;;4988909;28;20789;-91
2021/08/25 14:01:18;;;;;;;1.67;1.10;;;;;;;;;;4987507;28;20416;-91
2021/08/25 14:03:46;;;;;;;1.63;1.00;;;;;;;;;;4992945;28;20897;-91
2021/08/25 14:06:14;;;;;;;2.38;1.25;;;;;;;;;;4994663;28;20413;-92
2021/08/25 14:08:41;;;;;;;2.30;1.10;;;;;;;;;;4990291;28;20403;-92
2021/08/25 14:11:12;;;;;;;3.83;1.52;;;;;;;;;;4997811;28;20493;-92
2021/08/25 14:13:39;;;;;;;1.40;1.30;;;;;;;;;;4996283;28;20415;-92
2021/08/25 14:16:06;;;;;;;2.95;1.20;;;;;;;;;;4997782;28;20426;-92
2021/08/25 14:18:34;;;;;;;2.58;1.20;;;;;;;;;;4985147;28;20409;-92
2021/08/25 14:21:03;;;;;;;1.83;1.23;;;;;;;;;;4987213;28;20428;-92
2021/08/25 14:23:30;;;;;;;2.60;1.30;;;;;;;;;;4994396;28;20407;-90
2021/08/25 14:25:57;;;;;;;2.20;1.30;;;;;;;;;;4991892;28;20417;-92
2021/08/25 14:28:25;;;;;;;2.47;1.20;;;;;;;;;;4987352;28;20424;-92
2021/08/25 14:30:52;;;;;;;1.90;1.20;;;;;;;;;;4994764;28;20408;-91
2021/08/25 14:33:19;;;;;;;1.30;1.20;;;;;;;;;;4986423;28;20924;-93
2021/08/25 14:35:46;;;;;;;3.47;1.50;;;;;;;;;;4987112;28;20404;-91
2021/08/25 14:38:15;;;;;;;1.90;1.27;;;;;;;;;;4987121;28;20417;-92
2021/08/25 14:40:43;;;;;;;2.65;1.10;;;;;;;;;;4987831;28;20401;-93
2021/08/25 14:43:10;;;;;;;2.80;1.52;;;;;;;;;;5000231;28;20410;-92
2021/08/25 14:45:37;;;;;;;2.15;1.40;;;;;;;;;;4998211;28;20486;-92
2021/08/25 14:48:06;;;;;;;2.45;1.63;;;;;;;;;;4989019;28;20409;-92
2021/08/25 14:50:34;;;;;;;2.13;1.30;;;;;;;;;;4985264;28;20425;-92